createdAt,value
2022-12-03T00:08:56.822Z,17.60
2022-12-03T00:27:38.741Z,15.80
2022-12-03T00:46:21.660Z,18.60
2022-12-03T01:05:03.984Z,16.00
2022-12-03T01:23:47.098Z,19.30
2022-12-03T01:42:28.997Z,20.80
2022-12-03T02:01:11.969Z,15.70
2022-12-03T02:19:54.048Z,20.00
2022-12-03T02:38:36.349Z,17.20
2022-12-03T02:57:17.906Z,19.20
2022-12-03T03:16:00.663Z,18.30
2022-12-03T03:34:43.134Z,13.60
2022-12-03T03:53:25.422Z,20.50
2022-12-03T04:12:09.929Z,17.10
2022-12-03T04:30:51.401Z,18.60
2022-12-03T04:49:35.004Z,18.30
2022-12-03T05:08:17.891Z,15.60
2022-12-03T05:27:00.626Z,16.60
2022-12-03T05:45:43.336Z,23.80
2022-12-03T06:04:26.568Z,22.70
2022-12-03T06:23:09.219Z,21.90
2022-12-03T06:41:51.207Z,21.90
2022-12-03T07:00:33.257Z,19.20
2022-12-03T07:19:17.585Z,16.10
2022-12-03T07:37:58.595Z,21.00
2022-12-03T07:56:41.011Z,24.00
2022-12-03T08:15:23.197Z,23.00
2022-12-03T08:34:08.827Z,21.00
2022-12-03T08:52:50.882Z,17.50
2022-12-03T09:11:34.879Z,20.60
2022-12-03T09:30:19.049Z,18.90
2022-12-03T09:49:01.751Z,20.00
2022-12-03T10:07:46.175Z,15.40
2022-12-03T10:45:12.160Z,16.10
2022-12-03T11:03:56.696Z,13.40
2022-12-03T11:22:39.777Z,13.70
2022-12-03T11:41:22.263Z,14.50
2022-12-03T12:00:06.433Z,11.70
2022-12-03T12:18:53.792Z,8.90
2022-12-03T12:37:32.321Z,11.00
2022-12-03T12:56:14.786Z,10.40
2022-12-03T13:14:57.337Z,20.00
2022-12-03T13:33:40.231Z,9.80
2022-12-03T13:52:21.599Z,9.90
2022-12-03T14:11:03.283Z,11.90
2022-12-03T14:29:45.746Z,12.90
2022-12-03T14:48:27.746Z,12.40
2022-12-03T15:07:10.279Z,10.80
2022-12-03T15:25:52.622Z,10.60
2022-12-03T15:44:34.199Z,8.40
2022-12-03T16:03:16.377Z,12.50
2022-12-03T16:21:58.438Z,12.80
2022-12-03T16:40:40.664Z,13.20
2022-12-03T16:59:27.119Z,14.50
2022-12-03T17:18:04.948Z,15.60
2022-12-03T17:36:47.281Z,15.30
2022-12-03T17:55:37.194Z,15.50
2022-12-03T18:14:11.525Z,12.90
2022-12-03T18:32:54.992Z,20.90
2022-12-03T18:51:37.445Z,16.20
2022-12-03T19:10:17.957Z,11.20
2022-12-03T19:28:57.231Z,9.20
2022-12-03T19:47:38.566Z,11.30
2022-12-03T20:06:21.127Z,10.30
2022-12-03T20:25:03.466Z,8.70
2022-12-03T20:43:46.540Z,9.60
2022-12-03T21:02:28.832Z,11.20
2022-12-03T21:21:10.351Z,5.60
2022-12-03T21:39:52.816Z,8.80
2022-12-03T21:58:34.691Z,10.60
2022-12-03T22:17:16.977Z,9.20
2022-12-03T22:35:59.504Z,10.40
2022-12-03T22:54:44.011Z,7.80
2022-12-03T23:13:25.176Z,8.90
2022-12-03T23:32:08.035Z,16.00
2022-12-03T23:50:53.235Z,10.40
